メインページ
METAR-TAF:

METAR-TAF

空港 :

サントス・ドゥモン空港

リオデジャネイロ, リオデジャネイロ州, ブラジル

緯度: 22-54S, 経度: 043-10W, 海抜: 3m

現時点の気象観測

当レポートは1時間31分前の17:00(UTC)に作成
北/北西の風 4kt
気温 28°C
湿度 74%
気圧 1012 hPa
視程10km以上
1,500メートル以下は雲なし、積乱雲なし

METAR: SBRJ 201700Z 34004KT CAVOK 28/23 Q1012

時間: 15:31 (18:31 UTC)

予報

当レポートは8時間46分前の09:45(UTC)に作成
予報は20日の 12時(UTC)から 20日の 24時(UTC)まで有効
北/北東の風 5kt
視程10km以上
20日の 13時(UTC)から 20日の 16時(UTC)まで徐々に
南/南東の風 10kt
高度2500ftの雲は散在している
20日の 20時(UTC)から 20日の 22時(UTC)まで徐々に
南西の風 10kt
視程: 7000m
高度2500ftの雲は散在している
高度3000ftの雲はほとんどない, 積乱雲.
激しい雷雨
20日の 22時(UTC)から 20日の 23時(UTC)まで徐々に
の風 10kt
視程: 8000m
高度2000ftの雲は散在している

TAF: SBRJ 200945Z 2012/2024 02005KT 9999 FEW020TX32/2017Z TN23/2024Z BECMG 2013/2016 16010KT SCT025 BECMG 2020/2022 22010KT 7000 TS SCT025 FEW030CB BECMG 2022/2023 19010KT 8000 NSW SCT020 RMK PHC

4,000以上の空港の気象観測と天気予報(METAR報とTAF報)

利用可能な観測所は地図上に黄色い丸と赤い丸で示す。

丸の上にカーソルを重ねると観測所名を参照できる。

次にクリックすると気象観測と天気予報を参照できる。

マップの切り替え:黒色「×」印の緑ボタンをクリックして拡大、「-」印の緑ボタンをクリックして縮小、緑色の三角印をクリックして隣りの地図に切り替え


METAR-TAF: